Punta Arenas, Chile
Current Conditions -  °F | °C
As of 11:00 AM on Thursday 23 Oct 2014 (Local Time) from SCCI Reporting Station
Few Clouds Few Clouds  
Wind Chill: 39°   Ceiling: Unl
Heat Index: 48°   Visibility: 6mi
Dew Point: 30°   Wind: 38mph
Humidity: 50%   Direction: 240°WSW
Pressure: 29.8"   Gusts: 49mph
Location:  53.16°S, 70.93°W
Report Text: SCCI 231500Z 24033G43KT 9999 FEW030 09/M01 Q1009 NOSIG
Loading
Personal Weather Stations






























Interactive Weather Map
Tropical Storm Tracking
New forecast layout! Learn more

10-Day Weather Forecast

Advertisements
Track Severe Weather on mobile